sensor_id;sensor_type;location;lat;lon;timestamp;P1;durP1;ratioP1;P2;durP2;ratioP2
9759;SDS011;4919;48.792;9.202;2022-08-01T00:00:06;5.40;;;3.77;;
9759;SDS011;4919;48.792;9.202;2022-08-01T00:02:35;4.53;;;3.63;;
9759;SDS011;4919;48.792;9.202;2022-08-01T00:05:04;4.33;;;3.80;;
9759;SDS011;4919;48.792;9.202;2022-08-01T00:07:32;4.87;;;3.63;;
9759;SDS011;4919;48.792;9.202;2022-08-01T00:10:00;3.80;;;3.40;;
9759;SDS011;4919;48.792;9.202;2022-08-01T00:12:27;4.50;;;3.80;;
9759;SDS011;4919;48.792;9.202;2022-08-01T00:14:54;4.60;;;3.53;;
9759;SDS011;4919;48.792;9.202;2022-08-01T00:17:21;3.90;;;3.27;;
9759;SDS011;4919;48.792;9.202;2022-08-01T00:19:48;4.90;;;3.97;;
9759;SDS011;4919;48.792;9.202;2022-08-01T00:22:15;5.53;;;3.93;;
9759;SDS011;4919;48.792;9.202;2022-08-01T00:24:41;4.20;;;3.70;;
9759;SDS011;4919;48.792;9.202;2022-08-01T00:27:08;5.27;;;3.80;;
9759;SDS011;4919;48.792;9.202;2022-08-01T00:29:35;5.43;;;3.77;;
9759;SDS011;4919;48.792;9.202;2022-08-01T00:32:22;4.63;;;4.23;;
9759;SDS011;4919;48.792;9.202;2022-08-01T00:34:49;5.10;;;4.50;;
9759;SDS011;4919;48.792;9.202;2022-08-01T00:37:16;5.00;;;4.50;;
9759;SDS011;4919;48.792;9.202;2022-08-01T00:39:43;4.67;;;4.27;;
9759;SDS011;4919;48.792;9.202;2022-08-01T00:42:10;7.17;;;4.40;;
9759;SDS011;4919;48.792;9.202;2022-08-01T00:44:39;4.40;;;3.97;;
9759;SDS011;4919;48.792;9.202;2022-08-01T00:47:07;5.40;;;4.13;;
9759;SDS011;4919;48.792;9.202;2022-08-01T00:49:34;5.27;;;4.50;;
9759;SDS011;4919;48.792;9.202;2022-08-01T00:52:02;4.13;;;3.73;;
9759;SDS011;4919;48.792;9.202;2022-08-01T00:54:31;5.00;;;4.50;;
9759;SDS011;4919;48.792;9.202;2022-08-01T00:56:58;7.07;;;4.30;;
9759;SDS011;4919;48.792;9.202;2022-08-01T00:59:25;5.83;;;4.50;;
9759;SDS011;4919;48.792;9.202;2022-08-01T01:01:53;4.70;;;4.10;;
9759;SDS011;4919;48.792;9.202;2022-08-01T01:04:27;5.10;;;4.00;;
9759;SDS011;4919;48.792;9.202;2022-08-01T01:17:32;5.80;;;4.40;;
9759;SDS011;4919;48.792;9.202;2022-08-01T01:20:15;5.50;;;4.77;;
9759;SDS011;4919;48.792;9.202;2022-08-01T01:30:28;5.20;;;4.70;;
9759;SDS011;4919;48.792;9.202;2022-08-01T01:32:58;4.93;;;4.43;;
9759;SDS011;4919;48.792;9.202;2022-08-01T01:35:31;5.23;;;4.63;;
9759;SDS011;4919;48.792;9.202;2022-08-01T01:38:21;5.50;;;4.40;;
9759;SDS011;4919;48.792;9.202;2022-08-01T01:40:50;4.90;;;4.37;;
9759;SDS011;4919;48.792;9.202;2022-08-01T01:43:19;4.67;;;4.27;;
9759;SDS011;4919;48.792;9.202;2022-08-01T01:45:58;5.97;;;4.53;;
9759;SDS011;4919;48.792;9.202;2022-08-01T01:48:26;5.57;;;4.80;;
9759;SDS011;4919;48.792;9.202;2022-08-01T01:50:54;5.20;;;4.70;;
9759;SDS011;4919;48.792;9.202;2022-08-01T01:53:22;5.23;;;4.77;;
9759;SDS011;4919;48.792;9.202;2022-08-01T01:55:53;7.23;;;4.30;;
9759;SDS011;4919;48.792;9.202;2022-08-01T01:58:21;5.17;;;4.77;;
9759;SDS011;4919;48.792;9.202;2022-08-01T02:00:50;6.13;;;4.60;;
9759;SDS011;4919;48.792;9.202;2022-08-01T02:03:19;5.70;;;4.90;;
9759;SDS011;4919;48.792;9.202;2022-08-01T02:05:48;5.13;;;4.63;;
9759;SDS011;4919;48.792;9.202;2022-08-01T02:08:18;5.20;;;4.43;;
9759;SDS011;4919;48.792;9.202;2022-08-01T02:10:46;5.17;;;4.43;;
9759;SDS011;4919;48.792;9.202;2022-08-01T02:13:33;5.83;;;4.50;;
9759;SDS011;4919;48.792;9.202;2022-08-01T02:16:03;5.40;;;4.47;;
9759;SDS011;4919;48.792;9.202;2022-08-01T02:18:31;4.93;;;4.40;;
9759;SDS011;4919;48.792;9.202;2022-08-01T02:20:59;5.10;;;4.70;;
9759;SDS011;4919;48.792;9.202;2022-08-01T02:23:31;5.37;;;4.63;;
9759;SDS011;4919;48.792;9.202;2022-08-01T02:26:02;5.40;;;4.90;;
9759;SDS011;4919;48.792;9.202;2022-08-01T02:28:45;5.47;;;4.60;;
9759;SDS011;4919;48.792;9.202;2022-08-01T02:31:17;4.90;;;4.50;;
9759;SDS011;4919;48.792;9.202;2022-08-01T02:34:07;6.13;;;5.00;;
9759;SDS011;4919;48.792;9.202;2022-08-01T02:36:36;5.80;;;4.80;;
9759;SDS011;4919;48.792;9.202;2022-08-01T02:39:11;5.53;;;5.00;;
9759;SDS011;4919;48.792;9.202;2022-08-01T02:41:41;5.37;;;4.50;;
9759;SDS011;4919;48.792;9.202;2022-08-01T02:44:10;5.43;;;4.93;;
9759;SDS011;4919;48.792;9.202;2022-08-01T02:46:41;5.23;;;4.73;;
9759;SDS011;4919;48.792;9.202;2022-08-01T02:49:12;5.10;;;4.57;;
9759;SDS011;4919;48.792;9.202;2022-08-01T02:51:41;6.27;;;4.87;;
9759;SDS011;4919;48.792;9.202;2022-08-01T02:54:10;5.17;;;4.60;;
9759;SDS011;4919;48.792;9.202;2022-08-01T02:56:37;5.20;;;4.70;;
9759;SDS011;4919;48.792;9.202;2022-08-01T02:59:13;5.90;;;5.40;;
9759;SDS011;4919;48.792;9.202;2022-08-01T03:01:47;5.60;;;4.93;;
9759;SDS011;4919;48.792;9.202;2022-08-01T03:04:16;6.80;;;5.20;;
9759;SDS011;4919;48.792;9.202;2022-08-01T03:06:45;5.90;;;5.07;;
9759;SDS011;4919;48.792;9.202;2022-08-01T03:09:14;5.40;;;4.87;;
9759;SDS011;4919;48.792;9.202;2022-08-01T03:11:43;5.37;;;4.87;;
9759;SDS011;4919;48.792;9.202;2022-08-01T03:14:11;5.30;;;4.80;;
9759;SDS011;4919;48.792;9.202;2022-08-01T03:16:40;5.53;;;4.87;;
9759;SDS011;4919;48.792;9.202;2022-08-01T03:19:09;5.40;;;4.90;;
9759;SDS011;4919;48.792;9.202;2022-08-01T03:21:38;5.43;;;4.93;;
9759;SDS011;4919;48.792;9.202;2022-08-01T03:24:07;5.43;;;4.93;;
9759;SDS011;4919;48.792;9.202;2022-08-01T03:26:36;5.70;;;5.20;;
9759;SDS011;4919;48.792;9.202;2022-08-01T03:29:06;5.23;;;4.80;;
9759;SDS011;4919;48.792;9.202;2022-08-01T03:31:37;7.33;;;5.33;;
9759;SDS011;4919;48.792;9.202;2022-08-01T03:34:08;5.53;;;5.00;;
9759;SDS011;4919;48.792;9.202;2022-08-01T03:36:38;6.53;;;5.30;;
9759;SDS011;4919;48.792;9.202;2022-08-01T03:39:15;6.10;;;5.33;;
9759;SDS011;4919;48.792;9.202;2022-08-01T03:41:46;6.37;;;5.67;;
9759;SDS011;4919;48.792;9.202;2022-08-01T03:44:22;6.10;;;5.50;;
9759;SDS011;4919;48.792;9.202;2022-08-01T03:46:56;6.03;;;5.30;;
9759;SDS011;4919;48.792;9.202;2022-08-01T03:49:32;6.70;;;5.60;;
9759;SDS011;4919;48.792;9.202;2022-08-01T03:52:02;5.57;;;5.07;;
9759;SDS011;4919;48.792;9.202;2022-08-01T03:54:32;5.37;;;4.87;;
9759;SDS011;4919;48.792;9.202;2022-08-01T03:57:02;5.70;;;5.20;;
9759;SDS011;4919;48.792;9.202;2022-08-01T03:59:30;5.63;;;5.13;;
9759;SDS011;4919;48.792;9.202;2022-08-01T04:01:58;6.90;;;5.40;;
9759;SDS011;4919;48.792;9.202;2022-08-01T04:04:28;6.23;;;5.63;;
9759;SDS011;4919;48.792;9.202;2022-08-01T04:06:55;6.10;;;5.50;;
9759;SDS011;4919;48.792;9.202;2022-08-01T04:09:22;6.40;;;5.80;;
9759;SDS011;4919;48.792;9.202;2022-08-01T04:11:49;6.20;;;5.60;;
9759;SDS011;4919;48.792;9.202;2022-08-01T04:14:16;6.70;;;6.00;;
9759;SDS011;4919;48.792;9.202;2022-08-01T04:16:43;6.37;;;5.70;;
9759;SDS011;4919;48.792;9.202;2022-08-01T04:19:10;5.90;;;5.33;;
9759;SDS011;4919;48.792;9.202;2022-08-01T04:21:37;6.70;;;6.07;;
9759;SDS011;4919;48.792;9.202;2022-08-01T04:24:06;6.50;;;5.90;;
9759;SDS011;4919;48.792;9.202;2022-08-01T04:26:37;7.30;;;5.97;;
9759;SDS011;4919;48.792;9.202;2022-08-01T04:29:05;6.67;;;6.07;;
9759;SDS011;4919;48.792;9.202;2022-08-01T04:31:34;6.60;;;6.00;;
9759;SDS011;4919;48.792;9.202;2022-08-01T04:34:03;6.27;;;5.67;;
9759;SDS011;4919;48.792;9.202;2022-08-01T04:36:32;6.60;;;5.87;;
9759;SDS011;4919;48.792;9.202;2022-08-01T04:39:03;6.90;;;6.20;;
9759;SDS011;4919;48.792;9.202;2022-08-01T04:41:31;6.00;;;5.50;;
9759;SDS011;4919;48.792;9.202;2022-08-01T04:43:59;6.20;;;5.70;;
9759;SDS011;4919;48.792;9.202;2022-08-01T04:46:27;6.10;;;5.60;;
9759;SDS011;4919;48.792;9.202;2022-08-01T04:48:55;7.73;;;6.00;;
9759;SDS011;4919;48.792;9.202;2022-08-01T04:51:22;6.37;;;5.77;;
9759;SDS011;4919;48.792;9.202;2022-08-01T04:53:50;6.93;;;6.23;;
9759;SDS011;4919;48.792;9.202;2022-08-01T04:56:18;7.93;;;6.77;;
9759;SDS011;4919;48.792;9.202;2022-08-01T04:58:47;7.30;;;6.60;;
9759;SDS011;4919;48.792;9.202;2022-08-01T05:01:14;8.00;;;7.20;;
9759;SDS011;4919;48.792;9.202;2022-08-01T05:03:41;6.43;;;5.90;;
9759;SDS011;4919;48.792;9.202;2022-08-01T05:06:08;8.83;;;6.70;;
9759;SDS011;4919;48.792;9.202;2022-08-01T05:08:35;7.07;;;6.33;;
9759;SDS011;4919;48.792;9.202;2022-08-01T05:11:02;7.00;;;6.30;;
9759;SDS011;4919;48.792;9.202;2022-08-01T05:13:30;7.53;;;6.83;;
9759;SDS011;4919;48.792;9.202;2022-08-01T05:15:56;6.80;;;6.20;;
9759;SDS011;4919;48.792;9.202;2022-08-01T05:18:24;8.10;;;6.73;;
9759;SDS011;4919;48.792;9.202;2022-08-01T05:20:54;7.53;;;6.80;;
9759;SDS011;4919;48.792;9.202;2022-08-01T05:23:21;7.80;;;6.70;;
9759;SDS011;4919;48.792;9.202;2022-08-01T05:26:08;7.30;;;6.60;;
9759;SDS011;4919;48.792;9.202;2022-08-01T05:28:35;7.30;;;6.60;;
9759;SDS011;4919;48.792;9.202;2022-08-01T05:31:02;7.03;;;6.43;;
9759;SDS011;4919;48.792;9.202;2022-08-01T05:33:29;7.30;;;6.60;;
9759;SDS011;4919;48.792;9.202;2022-08-01T05:35:56;7.00;;;6.40;;
9759;SDS011;4919;48.792;9.202;2022-08-01T05:38:23;6.53;;;5.50;;
9759;SDS011;4919;48.792;9.202;2022-08-01T05:40:50;6.40;;;5.80;;
9759;SDS011;4919;48.792;9.202;2022-08-01T05:43:17;7.13;;;6.43;;
9759;SDS011;4919;48.792;9.202;2022-08-01T05:45:45;6.80;;;6.10;;
9759;SDS011;4919;48.792;9.202;2022-08-01T05:48:12;5.77;;;5.17;;
9759;SDS011;4919;48.792;9.202;2022-08-01T05:50:39;5.97;;;5.37;;
9759;SDS011;4919;48.792;9.202;2022-08-01T05:53:06;6.23;;;5.63;;
9759;SDS011;4919;48.792;9.202;2022-08-01T05:55:34;5.20;;;4.70;;
9759;SDS011;4919;48.792;9.202;2022-08-01T05:58:01;6.23;;;4.80;;
9759;SDS011;4919;48.792;9.202;2022-08-01T06:00:28;5.10;;;4.60;;
9759;SDS011;4919;48.792;9.202;2022-08-01T06:02:55;5.37;;;4.40;;
9759;SDS011;4919;48.792;9.202;2022-08-01T06:05:22;7.00;;;4.43;;
9759;SDS011;4919;48.792;9.202;2022-08-01T06:07:49;5.10;;;4.60;;
9759;SDS011;4919;48.792;9.202;2022-08-01T06:10:16;5.87;;;4.33;;
9759;SDS011;4919;48.792;9.202;2022-08-01T06:12:43;6.30;;;4.27;;
9759;SDS011;4919;48.792;9.202;2022-08-01T06:15:10;5.70;;;4.40;;
9759;SDS011;4919;48.792;9.202;2022-08-01T06:17:37;5.63;;;4.33;;
9759;SDS011;4919;48.792;9.202;2022-08-01T06:20:05;5.00;;;4.50;;
9759;SDS011;4919;48.792;9.202;2022-08-01T06:22:32;4.63;;;4.13;;
9759;SDS011;4919;48.792;9.202;2022-08-01T06:24:59;4.93;;;4.43;;
9759;SDS011;4919;48.792;9.202;2022-08-01T06:27:26;4.50;;;4.10;;
9759;SDS011;4919;48.792;9.202;2022-08-01T06:29:53;4.20;;;3.80;;
9759;SDS011;4919;48.792;9.202;2022-08-01T06:32:21;4.23;;;3.80;;
9759;SDS011;4919;48.792;9.202;2022-08-01T06:34:53;4.30;;;3.90;;
9759;SDS011;4919;48.792;9.202;2022-08-01T06:37:21;4.40;;;4.00;;
9759;SDS011;4919;48.792;9.202;2022-08-01T06:39:49;4.70;;;4.30;;
9759;SDS011;4919;48.792;9.202;2022-08-01T06:42:16;4.17;;;3.70;;
9759;SDS011;4919;48.792;9.202;2022-08-01T06:44:44;5.33;;;4.60;;
9759;SDS011;4919;48.792;9.202;2022-08-01T06:47:11;6.37;;;3.93;;
9759;SDS011;4919;48.792;9.202;2022-08-01T06:49:38;4.83;;;4.43;;
9759;SDS011;4919;48.792;9.202;2022-08-01T06:52:05;5.53;;;4.80;;
9759;SDS011;4919;48.792;9.202;2022-08-01T06:54:32;5.83;;;4.57;;
9759;SDS011;4919;48.792;9.202;2022-08-01T06:56:59;5.20;;;4.70;;
9759;SDS011;4919;48.792;9.202;2022-08-01T06:59:26;4.70;;;4.20;;
9759;SDS011;4919;48.792;9.202;2022-08-01T07:01:53;5.47;;;3.90;;
9759;SDS011;4919;48.792;9.202;2022-08-01T07:04:20;3.50;;;3.27;;
9759;SDS011;4919;48.792;9.202;2022-08-01T07:06:48;3.73;;;3.30;;
9759;SDS011;4919;48.792;9.202;2022-08-01T07:09:15;3.30;;;3.00;;
9759;SDS011;4919;48.792;9.202;2022-08-01T07:11:42;3.23;;;2.93;;
9759;SDS011;4919;48.792;9.202;2022-08-01T07:14:09;3.10;;;2.80;;
9759;SDS011;4919;48.792;9.202;2022-08-01T07:16:36;4.47;;;3.17;;
9759;SDS011;4919;48.792;9.202;2022-08-01T07:19:02;3.47;;;3.17;;
9759;SDS011;4919;48.792;9.202;2022-08-01T07:21:29;3.73;;;2.97;;
9759;SDS011;4919;48.792;9.202;2022-08-01T07:24:13;3.40;;;3.10;;
9759;SDS011;4919;48.792;9.202;2022-08-01T07:26:41;3.17;;;2.90;;
9759;SDS011;4919;48.792;9.202;2022-08-01T07:29:23;3.33;;;3.03;;
9759;SDS011;4919;48.792;9.202;2022-08-01T07:31:51;3.20;;;2.90;;
9759;SDS011;4919;48.792;9.202;2022-08-01T07:34:23;3.63;;;2.90;;
9759;SDS011;4919;48.792;9.202;2022-08-01T07:36:51;2.90;;;2.70;;
9759;SDS011;4919;48.792;9.202;2022-08-01T07:39:19;3.20;;;3.00;;
9759;SDS011;4919;48.792;9.202;2022-08-01T07:41:46;3.07;;;2.87;;
9759;SDS011;4919;48.792;9.202;2022-08-01T07:44:33;3.37;;;3.10;;
9759;SDS011;4919;48.792;9.202;2022-08-01T07:47:00;3.63;;;3.33;;
9759;SDS011;4919;48.792;9.202;2022-08-01T07:49:27;3.80;;;3.50;;
9759;SDS011;4919;48.792;9.202;2022-08-01T07:51:54;4.10;;;3.70;;
9759;SDS011;4919;48.792;9.202;2022-08-01T07:54:30;4.10;;;3.80;;
9759;SDS011;4919;48.792;9.202;2022-08-01T07:57:00;4.77;;;3.50;;
9759;SDS011;4919;48.792;9.202;2022-08-01T07:59:28;4.33;;;3.93;;
9759;SDS011;4919;48.792;9.202;2022-08-01T08:01:55;4.20;;;3.80;;
9759;SDS011;4919;48.792;9.202;2022-08-01T08:04:22;4.37;;;3.97;;
9759;SDS011;4919;48.792;9.202;2022-08-01T08:06:49;4.60;;;4.20;;
9759;SDS011;4919;48.792;9.202;2022-08-01T08:09:17;4.97;;;4.13;;
9759;SDS011;4919;48.792;9.202;2022-08-01T08:11:44;3.80;;;3.50;;
9759;SDS011;4919;48.792;9.202;2022-08-01T08:14:16;4.03;;;3.63;;
9759;SDS011;4919;48.792;9.202;2022-08-01T08:16:44;4.20;;;3.80;;
9759;SDS011;4919;48.792;9.202;2022-08-01T08:19:11;4.33;;;3.97;;
9759;SDS011;4919;48.792;9.202;2022-08-01T08:21:38;4.90;;;4.50;;
9759;SDS011;4919;48.792;9.202;2022-08-01T08:24:09;4.97;;;4.47;;
9759;SDS011;4919;48.792;9.202;2022-08-01T08:26:56;5.73;;;5.23;;
9759;SDS011;4919;48.792;9.202;2022-08-01T08:29:24;5.43;;;4.93;;
9759;SDS011;4919;48.792;9.202;2022-08-01T08:31:53;6.47;;;5.87;;
9759;SDS011;4919;48.792;9.202;2022-08-01T08:34:24;6.90;;;6.20;;
9759;SDS011;4919;48.792;9.202;2022-08-01T08:36:52;7.70;;;7.00;;
9759;SDS011;4919;48.792;9.202;2022-08-01T08:39:20;8.03;;;7.33;;
9759;SDS011;4919;48.792;9.202;2022-08-01T08:41:48;8.40;;;7.60;;
9759;SDS011;4919;48.792;9.202;2022-08-01T08:44:16;7.83;;;7.13;;
9759;SDS011;4919;48.792;9.202;2022-08-01T08:46:44;7.23;;;6.63;;
9759;SDS011;4919;48.792;9.202;2022-08-01T08:49:20;7.90;;;7.20;;
9759;SDS011;4919;48.792;9.202;2022-08-01T08:51:50;7.37;;;6.60;;
9759;SDS011;4919;48.792;9.202;2022-08-01T08:54:19;6.83;;;6.23;;
9759;SDS011;4919;48.792;9.202;2022-08-01T08:56:57;5.60;;;5.10;;
9759;SDS011;4919;48.792;9.202;2022-08-01T08:59:25;5.90;;;5.00;;
9759;SDS011;4919;48.792;9.202;2022-08-01T09:01:54;3.13;;;2.90;;
9759;SDS011;4919;48.792;9.202;2022-08-01T09:04:22;3.20;;;2.90;;
9759;SDS011;4919;48.792;9.202;2022-08-01T09:06:51;3.30;;;3.00;;
9759;SDS011;4919;48.792;9.202;2022-08-01T09:09:19;3.27;;;2.97;;
9759;SDS011;4919;48.792;9.202;2022-08-01T09:11:46;2.70;;;2.50;;
9759;SDS011;4919;48.792;9.202;2022-08-01T09:14:23;3.33;;;3.03;;
9759;SDS011;4919;48.792;9.202;2022-08-01T09:17:00;3.00;;;2.70;;
9759;SDS011;4919;48.792;9.202;2022-08-01T09:19:39;3.13;;;2.83;;
9759;SDS011;4919;48.792;9.202;2022-08-01T09:22:08;3.30;;;3.00;;
9759;SDS011;4919;48.792;9.202;2022-08-01T09:24:40;2.90;;;1.97;;
9759;SDS011;4919;48.792;9.202;2022-08-01T09:27:15;2.13;;;1.97;;
9759;SDS011;4919;48.792;9.202;2022-08-01T09:29:47;2.20;;;2.00;;
9759;SDS011;4919;48.792;9.202;2022-08-01T09:32:30;2.47;;;2.10;;
9759;SDS011;4919;48.792;9.202;2022-08-01T09:35:21;2.50;;;2.27;;
9759;SDS011;4919;48.792;9.202;2022-08-01T09:38:16;2.57;;;2.03;;
9759;SDS011;4919;48.792;9.202;2022-08-01T09:43:18;2.57;;;2.37;;
9759;SDS011;4919;48.792;9.202;2022-08-01T09:45:46;2.60;;;2.40;;
9759;SDS011;4919;48.792;9.202;2022-08-01T09:48:16;2.47;;;2.20;;
9759;SDS011;4919;48.792;9.202;2022-08-01T09:50:44;2.30;;;2.10;;
9759;SDS011;4919;48.792;9.202;2022-08-01T09:53:14;3.57;;;2.27;;
9759;SDS011;4919;48.792;9.202;2022-08-01T09:56:01;3.50;;;2.30;;
9759;SDS011;4919;48.792;9.202;2022-08-01T09:58:48;1.80;;;1.70;;
9759;SDS011;4919;48.792;9.202;2022-08-01T10:01:23;2.40;;;2.20;;
9759;SDS011;4919;48.792;9.202;2022-08-01T10:04:04;2.30;;;1.73;;
9759;SDS011;4919;48.792;9.202;2022-08-01T10:06:41;1.97;;;1.80;;
9759;SDS011;4919;48.792;9.202;2022-08-01T10:09:11;2.10;;;1.90;;
9759;SDS011;4919;48.792;9.202;2022-08-01T10:11:42;3.23;;;2.00;;
9759;SDS011;4919;48.792;9.202;2022-08-01T10:14:10;2.23;;;1.80;;
9759;SDS011;4919;48.792;9.202;2022-08-01T10:16:43;2.20;;;2.00;;
9759;SDS011;4919;48.792;9.202;2022-08-01T10:19:30;2.20;;;2.00;;
9759;SDS011;4919;48.792;9.202;2022-08-01T10:21:58;2.20;;;2.00;;
9759;SDS011;4919;48.792;9.202;2022-08-01T10:24:27;2.00;;;1.80;;
9759;SDS011;4919;48.792;9.202;2022-08-01T10:26:56;2.10;;;1.90;;
9759;SDS011;4919;48.792;9.202;2022-08-01T10:29:42;3.00;;;2.10;;
9759;SDS011;4919;48.792;9.202;2022-08-01T10:32:32;1.83;;;1.70;;
9759;SDS011;4919;48.792;9.202;2022-08-01T10:35:05;2.00;;;1.80;;
9759;SDS011;4919;48.792;9.202;2022-08-01T10:37:40;1.80;;;1.70;;
9759;SDS011;4919;48.792;9.202;2022-08-01T10:40:18;1.83;;;1.73;;
9759;SDS011;4919;48.792;9.202;2022-08-01T10:42:56;2.13;;;1.70;;
9759;SDS011;4919;48.792;9.202;2022-08-01T10:45:24;1.70;;;1.60;;
9759;SDS011;4919;48.792;9.202;2022-08-01T10:50:40;1.90;;;1.80;;
9759;SDS011;4919;48.792;9.202;2022-08-01T11:01:15;2.17;;;1.60;;
9759;SDS011;4919;48.792;9.202;2022-08-01T11:09:15;1.73;;;1.63;;
9759;SDS011;4919;48.792;9.202;2022-08-01T11:12:17;1.83;;;1.73;;
9759;SDS011;4919;48.792;9.202;2022-08-01T11:20:11;2.27;;;1.70;;
9759;SDS011;4919;48.792;9.202;2022-08-01T11:28:23;2.00;;;1.67;;
9759;SDS011;4919;48.792;9.202;2022-08-01T11:41:16;3.03;;;2.00;;
9759;SDS011;4919;48.792;9.202;2022-08-01T11:52:09;1.63;;;1.50;;
9759;SDS011;4919;48.792;9.202;2022-08-01T11:54:38;2.67;;;1.67;;
9759;SDS011;4919;48.792;9.202;2022-08-01T11:57:11;1.70;;;1.60;;
9759;SDS011;4919;48.792;9.202;2022-08-01T11:59:53;1.70;;;1.60;;
9759;SDS011;4919;48.792;9.202;2022-08-01T12:02:37;2.70;;;1.70;;
9759;SDS011;4919;48.792;9.202;2022-08-01T12:05:08;2.40;;;1.70;;
9759;SDS011;4919;48.792;9.202;2022-08-01T12:07:40;2.93;;;1.73;;
9759;SDS011;4919;48.792;9.202;2022-08-01T12:12:49;3.03;;;1.67;;
9759;SDS011;4919;48.792;9.202;2022-08-01T12:15:19;1.90;;;1.70;;
9759;SDS011;4919;48.792;9.202;2022-08-01T12:18:01;1.63;;;1.53;;
9759;SDS011;4919;48.792;9.202;2022-08-01T12:20:35;2.40;;;1.63;;
9759;SDS011;4919;48.792;9.202;2022-08-01T12:23:21;1.80;;;1.70;;
9759;SDS011;4919;48.792;9.202;2022-08-01T12:25:51;2.77;;;1.83;;
9759;SDS011;4919;48.792;9.202;2022-08-01T12:28:18;2.13;;;1.60;;
9759;SDS011;4919;48.792;9.202;2022-08-01T12:30:46;1.90;;;1.70;;
9759;SDS011;4919;48.792;9.202;2022-08-01T12:33:16;1.67;;;1.57;;
9759;SDS011;4919;48.792;9.202;2022-08-01T12:35:44;2.20;;;1.60;;
9759;SDS011;4919;48.792;9.202;2022-08-01T12:38:15;2.07;;;1.70;;
9759;SDS011;4919;48.792;9.202;2022-08-01T12:40:49;4.07;;;1.70;;
9759;SDS011;4919;48.792;9.202;2022-08-01T12:43:19;1.70;;;1.60;;
9759;SDS011;4919;48.792;9.202;2022-08-01T12:45:54;2.93;;;1.73;;
9759;SDS011;4919;48.792;9.202;2022-08-01T12:48:24;2.20;;;1.50;;
9759;SDS011;4919;48.792;9.202;2022-08-01T12:50:52;1.90;;;1.60;;
9759;SDS011;4919;48.792;9.202;2022-08-01T12:53:20;1.97;;;1.80;;
9759;SDS011;4919;48.792;9.202;2022-08-01T12:55:52;1.60;;;1.50;;
9759;SDS011;4919;48.792;9.202;2022-08-01T12:58:29;2.10;;;1.60;;
9759;SDS011;4919;48.792;9.202;2022-08-01T13:01:02;1.67;;;1.50;;
9759;SDS011;4919;48.792;9.202;2022-08-01T13:03:38;3.37;;;1.80;;
9759;SDS011;4919;48.792;9.202;2022-08-01T13:06:12;3.77;;;1.83;;
9759;SDS011;4919;48.792;9.202;2022-08-01T13:08:42;1.73;;;1.63;;
9759;SDS011;4919;48.792;9.202;2022-08-01T13:11:10;1.60;;;1.50;;
9759;SDS011;4919;48.792;9.202;2022-08-01T13:13:43;1.97;;;1.70;;
9759;SDS011;4919;48.792;9.202;2022-08-01T13:16:16;1.80;;;1.70;;
9759;SDS011;4919;48.792;9.202;2022-08-01T13:19:03;2.30;;;1.90;;
9759;SDS011;4919;48.792;9.202;2022-08-01T13:21:32;1.97;;;1.80;;
9759;SDS011;4919;48.792;9.202;2022-08-01T13:24:23;1.40;;;1.40;;
9759;SDS011;4919;48.792;9.202;2022-08-01T13:26:57;4.10;;;1.73;;
9759;SDS011;4919;48.792;9.202;2022-08-01T13:29:31;1.50;;;1.40;;
9759;SDS011;4919;48.792;9.202;2022-08-01T13:32:17;4.00;;;1.50;;
9759;SDS011;4919;48.792;9.202;2022-08-01T13:35:02;2.50;;;1.50;;
9759;SDS011;4919;48.792;9.202;2022-08-01T13:37:31;1.60;;;1.47;;
9759;SDS011;4919;48.792;9.202;2022-08-01T13:39:58;1.63;;;1.53;;
9759;SDS011;4919;48.792;9.202;2022-08-01T13:42:25;2.03;;;1.40;;
9759;SDS011;4919;48.792;9.202;2022-08-01T13:44:52;3.77;;;1.40;;
9759;SDS011;4919;48.792;9.202;2022-08-01T13:47:19;1.93;;;1.30;;
9759;SDS011;4919;48.792;9.202;2022-08-01T13:49:58;2.83;;;1.47;;
9759;SDS011;4919;48.792;9.202;2022-08-01T13:52:29;1.70;;;1.30;;
9759;SDS011;4919;48.792;9.202;2022-08-01T13:54:57;1.87;;;1.30;;
9759;SDS011;4919;48.792;9.202;2022-08-01T13:57:25;1.50;;;1.40;;
9759;SDS011;4919;48.792;9.202;2022-08-01T14:00:03;1.10;;;1.10;;
9759;SDS011;4919;48.792;9.202;2022-08-01T14:02:37;1.30;;;1.20;;
9759;SDS011;4919;48.792;9.202;2022-08-01T14:05:04;1.93;;;1.30;;
9759;SDS011;4919;48.792;9.202;2022-08-01T14:07:31;1.30;;;1.20;;
9759;SDS011;4919;48.792;9.202;2022-08-01T14:09:58;2.10;;;1.20;;
9759;SDS011;4919;48.792;9.202;2022-08-01T14:12:46;1.20;;;1.10;;
9759;SDS011;4919;48.792;9.202;2022-08-01T14:15:13;3.23;;;1.20;;
9759;SDS011;4919;48.792;9.202;2022-08-01T14:18:00;2.93;;;1.20;;
9759;SDS011;4919;48.792;9.202;2022-08-01T14:20:27;1.47;;;1.03;;
9759;SDS011;4919;48.792;9.202;2022-08-01T14:22:54;1.30;;;1.20;;
9759;SDS011;4919;48.792;9.202;2022-08-01T14:25:21;1.50;;;1.10;;
9759;SDS011;4919;48.792;9.202;2022-08-01T14:28:08;1.63;;;1.30;;
9759;SDS011;4919;48.792;9.202;2022-08-01T14:30:35;1.10;;;1.10;;
9759;SDS011;4919;48.792;9.202;2022-08-01T14:33:02;2.30;;;1.20;;
9759;SDS011;4919;48.792;9.202;2022-08-01T14:35:29;1.50;;;1.10;;
9759;SDS011;4919;48.792;9.202;2022-08-01T14:38:16;1.40;;;1.20;;
9759;SDS011;4919;48.792;9.202;2022-08-01T14:40:57;2.37;;;1.30;;
9759;SDS011;4919;48.792;9.202;2022-08-01T14:43:25;2.83;;;1.30;;
9759;SDS011;4919;48.792;9.202;2022-08-01T14:45:58;2.87;;;1.30;;
9759;SDS011;4919;48.792;9.202;2022-08-01T14:48:26;2.60;;;1.30;;
9759;SDS011;4919;48.792;9.202;2022-08-01T14:50:53;1.20;;;1.10;;
9759;SDS011;4919;48.792;9.202;2022-08-01T14:53:19;1.83;;;1.10;;
9759;SDS011;4919;48.792;9.202;2022-08-01T14:55:46;1.17;;;1.10;;
9759;SDS011;4919;48.792;9.202;2022-08-01T14:58:13;2.50;;;1.00;;
9759;SDS011;4919;48.792;9.202;2022-08-01T15:00:40;2.57;;;1.20;;
9759;SDS011;4919;48.792;9.202;2022-08-01T15:03:07;1.20;;;1.10;;
9759;SDS011;4919;48.792;9.202;2022-08-01T15:05:34;1.63;;;1.30;;
9759;SDS011;4919;48.792;9.202;2022-08-01T15:08:03;1.33;;;1.20;;
9759;SDS011;4919;48.792;9.202;2022-08-01T15:10:31;1.60;;;1.20;;
9759;SDS011;4919;48.792;9.202;2022-08-01T15:12:58;1.83;;;1.20;;
9759;SDS011;4919;48.792;9.202;2022-08-01T15:15:26;1.47;;;1.20;;
9759;SDS011;4919;48.792;9.202;2022-08-01T15:17:53;1.90;;;1.20;;
9759;SDS011;4919;48.792;9.202;2022-08-01T15:20:20;1.47;;;1.30;;
9759;SDS011;4919;48.792;9.202;2022-08-01T15:22:47;2.73;;;1.20;;
9759;SDS011;4919;48.792;9.202;2022-08-01T15:25:14;1.30;;;1.20;;
9759;SDS011;4919;48.792;9.202;2022-08-01T15:27:41;1.10;;;1.00;;
9759;SDS011;4919;48.792;9.202;2022-08-01T15:30:08;1.97;;;1.13;;
9759;SDS011;4919;48.792;9.202;2022-08-01T15:32:35;1.40;;;1.30;;
9759;SDS011;4919;48.792;9.202;2022-08-01T15:35:02;6.17;;;1.53;;
9759;SDS011;4919;48.792;9.202;2022-08-01T15:37:29;1.40;;;1.30;;
9759;SDS011;4919;48.792;9.202;2022-08-01T15:39:56;1.37;;;1.27;;
9759;SDS011;4919;48.792;9.202;2022-08-01T15:42:23;1.63;;;1.50;;
9759;SDS011;4919;48.792;9.202;2022-08-01T15:44:53;1.50;;;1.40;;
9759;SDS011;4919;48.792;9.202;2022-08-01T15:47:19;1.40;;;1.30;;
9759;SDS011;4919;48.792;9.202;2022-08-01T15:49:50;2.10;;;1.50;;
9759;SDS011;4919;48.792;9.202;2022-08-01T15:52:18;1.60;;;1.50;;
9759;SDS011;4919;48.792;9.202;2022-08-01T15:54:48;1.53;;;1.43;;
9759;SDS011;4919;48.792;9.202;2022-08-01T15:57:15;1.57;;;1.47;;
9759;SDS011;4919;48.792;9.202;2022-08-01T15:59:42;1.40;;;1.27;;
9759;SDS011;4919;48.792;9.202;2022-08-01T16:02:09;1.70;;;1.50;;
9759;SDS011;4919;48.792;9.202;2022-08-01T16:04:37;2.00;;;1.60;;
9759;SDS011;4919;48.792;9.202;2022-08-01T16:07:04;2.10;;;1.50;;
9759;SDS011;4919;48.792;9.202;2022-08-01T16:09:31;3.63;;;1.50;;
9759;SDS011;4919;48.792;9.202;2022-08-01T16:11:58;2.00;;;1.40;;
9759;SDS011;4919;48.792;9.202;2022-08-01T16:14:25;2.40;;;1.30;;
9759;SDS011;4919;48.792;9.202;2022-08-01T16:16:52;1.30;;;1.20;;
9759;SDS011;4919;48.792;9.202;2022-08-01T16:19:19;2.73;;;1.60;;
9759;SDS011;4919;48.792;9.202;2022-08-01T16:21:47;1.33;;;1.30;;
9759;SDS011;4919;48.792;9.202;2022-08-01T16:24:13;1.53;;;1.43;;
9759;SDS011;4919;48.792;9.202;2022-08-01T16:26:41;1.73;;;1.50;;
9759;SDS011;4919;48.792;9.202;2022-08-01T16:29:08;2.57;;;1.40;;
9759;SDS011;4919;48.792;9.202;2022-08-01T16:31:35;1.90;;;1.50;;
9759;SDS011;4919;48.792;9.202;2022-08-01T16:34:22;1.63;;;1.40;;
9759;SDS011;4919;48.792;9.202;2022-08-01T16:36:49;1.83;;;1.40;;
9759;SDS011;4919;48.792;9.202;2022-08-01T16:39:18;1.80;;;1.70;;
9759;SDS011;4919;48.792;9.202;2022-08-01T16:41:49;3.33;;;1.60;;
9759;SDS011;4919;48.792;9.202;2022-08-01T16:44:21;3.63;;;1.57;;